Time;durP1;ratioP1;P1;durP2;ratioP2;P2;SDS_P1;SDS_P2;PMS_P1;PMS_P2;Temp;Humidity;BMP_temperature;BMP_pressure;BME280_temperature;BME280_humidity;BME280_pressure;Samples;Min_cycle;Max_cycle;Signal;HPM_P1;HPM_P2
2021/01/17 00:02:12;;;;;;;27.80;15.00;;;0.60;99.90;;;;;;5093027;28;20617;-76
2021/01/17 00:04:45;;;;;;;22.65;14.30;;;0.50;99.90;;;;;;5089350;28;20312;-75
2021/01/17 00:07:18;;;;;;;22.35;14.00;;;0.50;99.90;;;;;;5088223;28;20200;-76
2021/01/17 00:09:50;;;;;;;32.22;14.80;;;0.50;99.90;;;;;;5090122;28;20196;-75
2021/01/17 00:12:23;;;;;;;31.95;16.55;;;0.50;99.90;;;;;;5090668;28;20213;-76
2021/01/17 00:14:55;;;;;;;27.27;15.45;;;0.50;99.90;;;;;;5091392;28;20216;-75
2021/01/17 00:17:29;;;;;;;23.58;14.63;;;0.50;99.90;;;;;;5091898;28;20216;-75
2021/01/17 00:20:01;;;;;;;30.63;15.70;;;0.60;99.90;;;;;;5092797;28;20194;-75
2021/01/17 00:22:34;;;;;;;26.92;16.45;;;0.60;99.90;;;;;;5092899;28;20249;-75
2021/01/17 00:25:09;;;;;;;22.52;15.40;;;0.50;99.90;;;;;;5092801;28;20228;-76
2021/01/17 00:27:42;;;;;;;23.10;15.27;;;0.50;99.90;;;;;;5086911;28;20227;-75
2021/01/17 00:30:16;;;;;;;26.95;15.70;;;0.50;99.90;;;;;;5088599;28;20190;-75
2021/01/17 00:32:49;;;;;;;20.00;13.60;;;0.50;99.90;;;;;;5090703;28;20386;-76
2021/01/17 00:35:24;;;;;;;27.38;16.15;;;0.50;99.90;;;;;;5088778;28;20209;-75
2021/01/17 00:37:58;;;;;;;24.45;14.57;;;0.50;99.90;;;;;;5088940;28;20194;-75
2021/01/17 00:40:31;;;;;;;24.30;14.50;;;0.50;99.90;;;;;;5070746;28;20289;-75
2021/01/17 00:43:04;;;;;;;24.17;14.68;;;0.50;99.90;;;;;;5072000;28;20301;-76
2021/01/17 00:45:36;;;;;;;23.95;13.57;;;0.50;99.90;;;;;;5070928;28;20232;-75
2021/01/17 00:48:10;;;;;;;24.13;13.38;;;0.40;99.90;;;;;;5077083;28;20222;-75
2021/01/17 00:50:43;;;;;;;23.80;13.10;;;0.50;99.90;;;;;;5086489;28;20193;-75
2021/01/17 00:53:15;;;;;;;22.80;12.52;;;0.50;99.90;;;;;;5088964;28;20212;-74
2021/01/17 00:55:48;;;;;;;23.83;14.15;;;0.50;99.90;;;;;;5090225;28;20243;-75
2021/01/17 00:58:20;;;;;;;24.45;14.80;;;0.50;99.90;;;;;;5089957;28;20674;-75
2021/01/17 01:00:53;;;;;;;29.95;15.15;;;0.50;99.90;;;;;;5090587;28;20197;-74
2021/01/17 01:03:27;;;;;;;23.05;13.73;;;0.60;99.90;;;;;;5091890;28;20611;-75
2021/01/17 01:05:59;;;;;;;26.13;14.90;;;0.50;99.90;;;;;;5091611;28;20222;-75
2021/01/17 01:08:32;;;;;;;22.38;13.88;;;0.60;99.90;;;;;;5091487;28;20306;-74
2021/01/17 01:11:04;;;;;;;23.33;16.58;;;0.60;99.90;;;;;;5087812;28;20208;-75
2021/01/17 01:13:37;;;;;;;23.77;14.30;;;0.50;99.90;;;;;;5087331;28;20205;-75
2021/01/17 01:16:12;;;;;;;20.25;13.18;;;0.50;99.90;;;;;;5089335;28;20670;-75
2021/01/17 01:18:47;;;;;;;22.73;14.23;;;0.60;99.90;;;;;;5089647;28;20203;-75
2021/01/17 01:21:25;;;;;;;25.80;14.20;;;0.50;99.90;;;;;;5088705;28;20703;-75
2021/01/17 01:23:58;;;;;;;26.02;14.45;;;0.60;99.90;;;;;;5089317;28;20355;-75
2021/01/17 01:26:36;;;;;;;23.70;14.95;;;0.60;99.90;;;;;;5090365;28;20207;-75
2021/01/17 01:29:10;;;;;;;24.10;15.35;;;0.60;99.90;;;;;;5090364;28;20190;-75
2021/01/17 01:31:43;;;;;;;23.55;13.40;;;0.60;99.90;;;;;;5089429;28;20219;-74
2021/01/17 01:34:16;;;;;;;21.20;13.27;;;0.70;99.90;;;;;;5085843;28;20190;-75
2021/01/17 01:36:49;;;;;;;22.52;13.65;;;0.60;99.90;;;;;;5087762;28;20196;-74
2021/01/17 01:39:21;;;;;;;22.83;13.85;;;0.70;99.90;;;;;;5088964;28;20197;-75
2021/01/17 01:41:54;;;;;;;25.52;15.32;;;0.70;99.90;;;;;;5089294;28;20274;-75
2021/01/17 01:44:27;;;;;;;25.10;15.20;;;0.70;99.90;;;;;;5087953;28;20255;-75
2021/01/17 01:46:59;;;;;;;23.38;13.88;;;0.70;99.90;;;;;;5091449;28;20204;-75
2021/01/17 01:49:33;;;;;;;26.60;14.43;;;0.70;99.90;;;;;;5091432;28;20197;-75
2021/01/17 01:52:06;;;;;;;23.33;14.80;;;0.70;99.90;;;;;;5091531;28;20227;-75
2021/01/17 01:54:38;;;;;;;23.98;15.32;;;0.80;99.90;;;;;;5088752;28;20194;-75
2021/01/17 01:57:11;;;;;;;23.42;14.15;;;0.80;99.90;;;;;;5085898;28;20235;-75
2021/01/17 01:59:44;;;;;;;25.40;13.82;;;0.80;99.90;;;;;;5068446;28;20201;-76
2021/01/17 02:02:17;;;;;;;23.98;15.23;;;0.80;99.90;;;;;;5068504;28;20222;-75
2021/01/17 02:04:51;;;;;;;27.67;14.95;;;0.80;99.90;;;;;;5069189;28;20217;-75
2021/01/17 02:07:43;;;;;;;27.00;15.45;;;0.70;99.90;;;;;;5079237;28;20208;-75
2021/01/17 02:10:17;;;;;;;28.80;15.82;;;0.70;99.90;;;;;;5091109;28;20198;-74
2021/01/17 02:12:56;;;;;;;26.90;14.80;;;0.60;99.90;;;;;;5091444;28;20598;-75
2021/01/17 02:15:32;;;;;;;25.23;15.80;;;0.70;99.90;;;;;;5091346;28;20597;-75
2021/01/17 02:18:07;;;;;;;28.08;15.63;;;0.60;99.90;;;;;;5085640;28;20196;-75
2021/01/17 02:20:41;;;;;;;24.15;14.25;;;0.70;99.90;;;;;;5090317;28;20197;-75
2021/01/17 02:23:16;;;;;;;23.92;15.65;;;0.70;99.90;;;;;;5093128;28;20248;-75
2021/01/17 02:25:51;;;;;;;29.65;16.48;;;0.80;99.90;;;;;;5091403;28;20282;-75
2021/01/17 02:28:25;;;;;;;23.92;13.77;;;0.60;99.90;;;;;;5092748;28;20289;-75
2021/01/17 02:31:00;;;;;;;27.77;16.25;;;0.80;99.90;;;;;;5095237;28;20278;-75
2021/01/17 02:33:35;;;;;;;24.17;14.65;;;0.70;99.90;;;;;;5093571;28;20209;-75
2021/01/17 02:36:23;;;;;;;26.77;15.45;;;0.80;99.90;;;;;;5094989;28;20205;-75
2021/01/17 02:39:05;;;;;;;26.55;15.35;;;0.70;99.90;;;;;;5091505;28;20193;-75
2021/01/17 02:41:49;;;;;;;27.52;14.32;;;0.70;99.90;;;;;;5089568;28;20208;-75
2021/01/17 02:44:23;;;;;;;27.73;15.05;;;0.80;99.90;;;;;;5090978;28;20238;-75
2021/01/17 02:46:55;;;;;;;27.83;15.40;;;0.80;99.90;;;;;;5092601;28;20669;-75
2021/01/17 02:49:30;;;;;;;28.88;16.65;;;0.70;99.90;;;;;;5092579;28;20197;-75
2021/01/17 02:52:07;;;;;;;28.90;16.40;;;0.70;99.90;;;;;;5093462;28;20747;-75
2021/01/17 02:54:41;;;;;;;26.33;15.23;;;0.70;99.90;;;;;;5093533;28;20253;-75
2021/01/17 02:57:17;;;;;;;31.02;14.93;;;0.70;99.90;;;;;;5093556;28;20728;-75
2021/01/17 02:59:57;;;;;;;26.08;14.57;;;0.70;99.90;;;;;;5093828;28;20203;-75
2021/01/17 03:02:33;;;;;;;28.90;15.25;;;0.80;99.90;;;;;;5088639;28;20216;-75
2021/01/17 03:05:07;;;;;;;27.90;15.10;;;0.80;99.90;;;;;;5090299;28;20217;-76
2021/01/17 03:07:40;;;;;;;25.10;13.88;;;0.70;99.90;;;;;;5091960;28;20579;-76
2021/01/17 03:10:13;;;;;;;27.95;14.57;;;0.80;99.90;;;;;;5090743;28;20591;-75
2021/01/17 03:12:47;;;;;;;24.55;14.70;;;0.80;99.90;;;;;;5091996;28;20751;-75
2021/01/17 03:15:21;;;;;;;25.63;15.65;;;0.80;99.90;;;;;;5094101;28;20640;-74
2021/01/17 03:17:53;;;;;;;28.80;16.25;;;0.80;99.90;;;;;;5094278;28;20230;-75
2021/01/17 03:20:26;;;;;;;30.30;17.25;;;0.70;99.90;;;;;;5094380;28;20208;-75
2021/01/17 03:22:58;;;;;;;24.77;14.57;;;0.80;99.90;;;;;;5089511;28;20213;-76
2021/01/17 03:25:31;;;;;;;29.05;16.45;;;0.80;99.90;;;;;;5088706;28;20235;-75
2021/01/17 03:28:05;;;;;;;33.13;17.95;;;0.80;99.90;;;;;;5091478;28;20197;-75
2021/01/17 03:30:37;;;;;;;26.02;14.95;;;0.80;99.90;;;;;;5091362;28;20596;-75
2021/01/17 03:33:10;;;;;;;25.70;15.25;;;0.80;99.90;;;;;;5091657;28;20221;-75
2021/01/17 03:35:42;;;;;;;27.95;16.20;;;0.70;99.90;;;;;;5092334;28;20204;-75
2021/01/17 03:38:14;;;;;;;27.25;16.30;;;0.80;99.90;;;;;;5093780;28;20198;-75
2021/01/17 03:40:47;;;;;;;28.73;16.90;;;0.90;99.90;;;;;;5093707;28;20369;-75
2021/01/17 03:43:20;;;;;;;26.48;15.43;;;0.70;99.90;;;;;;5093506;28;20247;-75
2021/01/17 03:45:53;;;;;;;32.17;18.38;;;0.80;99.90;;;;;;5087102;28;20555;-75
2021/01/17 03:48:25;;;;;;;29.20;16.50;;;0.80;99.90;;;;;;5088971;28;20200;-75
2021/01/17 03:50:58;;;;;;;26.85;16.23;;;0.80;99.90;;;;;;5091598;28;20547;-75
2021/01/17 03:53:30;;;;;;;32.70;18.30;;;0.80;99.90;;;;;;5091595;28;20622;-76
2021/01/17 03:56:03;;;;;;;29.60;17.85;;;0.70;99.90;;;;;;5091569;28;20250;-75
2021/01/17 03:58:37;;;;;;;30.90;16.23;;;0.80;99.90;;;;;;5092674;28;20587;-75
2021/01/17 04:01:09;;;;;;;24.77;15.95;;;0.80;99.90;;;;;;5093447;28;20200;-75
2021/01/17 04:03:42;;;;;;;29.90;16.67;;;0.80;99.90;;;;;;5093271;28;20890;-75
2021/01/17 04:06:15;;;;;;;30.25;16.50;;;0.70;99.90;;;;;;5091948;28;20236;-75
2021/01/17 04:08:47;;;;;;;27.73;16.10;;;0.70;99.90;;;;;;5087609;28;20269;-75
2021/01/17 04:11:19;;;;;;;30.13;17.52;;;0.80;99.90;;;;;;5089316;28;20200;-75
2021/01/17 04:13:53;;;;;;;25.65;15.30;;;0.70;99.90;;;;;;5091039;28;20536;-75
2021/01/17 04:16:25;;;;;;;29.20;16.85;;;0.80;99.90;;;;;;5090628;28;20676;-75
2021/01/17 04:18:58;;;;;;;30.17;16.27;;;0.70;99.90;;;;;;5090986;28;20591;-75
2021/01/17 04:21:31;;;;;;;30.98;15.68;;;0.80;99.90;;;;;;5092821;28;20437;-75
2021/01/17 04:24:04;;;;;;;29.30;17.30;;;0.80;99.90;;;;;;5092850;28;20189;-74
2021/01/17 04:26:36;;;;;;;29.98;16.92;;;0.70;99.90;;;;;;5092668;28;20284;-75
2021/01/17 04:29:10;;;;;;;32.05;16.42;;;0.70;99.90;;;;;;5089727;28;20197;-75
2021/01/17 04:31:43;;;;;;;29.27;16.98;;;0.60;99.90;;;;;;5087152;28;20665;-75
2021/01/17 04:34:16;;;;;;;31.48;18.73;;;0.70;99.90;;;;;;5089758;28;20198;-75
2021/01/17 04:36:49;;;;;;;30.08;16.42;;;0.60;99.90;;;;;;5090208;28;20194;-75
2021/01/17 04:39:22;;;;;;;28.88;16.15;;;0.70;99.90;;;;;;5089299;28;20284;-76
2021/01/17 04:41:58;;;;;;;32.90;16.52;;;0.60;99.90;;;;;;5091155;28;20225;-75
2021/01/17 04:44:35;;;;;;;30.98;17.23;;;0.70;99.90;;;;;;5090290;28;20765;-75
2021/01/17 04:47:07;;;;;;;36.17;18.02;;;0.80;99.90;;;;;;5092686;28;20280;-75
2021/01/17 04:49:43;;;;;;;23.48;14.77;;;0.70;99.90;;;;;;5092430;28;20200;-75
2021/01/17 04:52:20;;;;;;;26.30;15.63;;;0.60;99.90;;;;;;5086773;28;20674;-75
2021/01/17 04:54:54;;;;;;;25.30;15.32;;;0.70;99.90;;;;;;5087785;28;20689;-75
2021/01/17 04:57:38;;;;;;;28.02;16.65;;;0.60;99.90;;;;;;5089849;28;20205;-75
2021/01/17 05:00:16;;;;;;;30.75;17.30;;;0.60;99.90;;;;;;5090060;28;20189;-75
2021/01/17 05:03:00;;;;;;;28.17;16.48;;;0.70;99.90;;;;;;5088521;28;20220;-74
2021/01/17 05:05:42;;;;;;;24.67;14.32;;;0.70;99.90;;;;;;5091930;28;20217;-75
2021/01/17 05:08:31;;;;;;;29.23;16.55;;;0.70;99.90;;;;;;5092037;28;20243;-75
2021/01/17 05:11:05;;;;;;;28.15;15.27;;;0.70;99.90;;;;;;5091948;28;20247;-75
2021/01/17 05:13:47;;;;;;;32.17;16.48;;;0.60;99.90;;;;;;5086474;28;20270;-76
2021/01/17 05:16:23;;;;;;;25.08;15.27;;;0.80;99.90;;;;;;5085543;28;20284;-75
2021/01/17 05:18:58;;;;;;;26.95;15.38;;;0.70;99.90;;;;;;5089511;28;20559;-74
2021/01/17 05:21:33;;;;;;;31.20;18.30;;;0.60;99.90;;;;;;5089253;28;20195;-76
2021/01/17 05:24:12;;;;;;;24.05;14.25;;;0.80;99.90;;;;;;5089619;28;20200;-76
2021/01/17 05:26:52;;;;;;;32.40;16.60;;;0.70;99.90;;;;;;5090986;28;20194;-76
2021/01/17 05:29:26;;;;;;;27.23;15.85;;;0.70;99.90;;;;;;5091861;28;20537;-76
2021/01/17 05:32:01;;;;;;;28.58;17.20;;;0.80;99.90;;;;;;5074034;28;20214;-76
2021/01/17 05:34:34;;;;;;;26.77;15.32;;;0.70;99.90;;;;;;5072372;28;20238;-76
2021/01/17 05:37:08;;;;;;;26.08;15.35;;;0.80;99.90;;;;;;5086188;28;20911;-75
2021/01/17 05:39:54;;;;;;;27.13;16.15;;;0.70;99.90;;;;;;5086937;28;20242;-75
2021/01/17 05:42:28;;;;;;;25.52;15.40;;;0.80;99.90;;;;;;5087745;28;20222;-75
2021/01/17 05:45:11;;;;;;;30.95;16.25;;;0.80;99.90;;;;;;5087926;28;20957;-75
2021/01/17 05:47:54;;;;;;;25.60;15.50;;;0.90;99.90;;;;;;5090119;28;20635;-74
2021/01/17 05:50:28;;;;;;;30.38;17.88;;;0.80;99.90;;;;;;5091598;28;20190;-74
2021/01/17 05:53:02;;;;;;;30.10;16.33;;;0.80;99.90;;;;;;5090235;28;20308;-73
2021/01/17 05:55:36;;;;;;;27.40;16.40;;;0.80;99.90;;;;;;5091109;28;20242;-74
2021/01/17 05:58:22;;;;;;;29.92;17.23;;;0.90;99.90;;;;;;5085375;28;20199;-74
2021/01/17 06:00:56;;;;;;;23.10;14.40;;;0.80;99.90;;;;;;5086708;28;20189;-74
2021/01/17 06:03:33;;;;;;;35.20;17.50;;;0.90;99.90;;;;;;5087353;28;20324;-74
2021/01/17 06:06:06;;;;;;;28.33;14.70;;;0.80;99.90;;;;;;5087238;28;20225;-75
2021/01/17 06:08:43;;;;;;;25.45;14.45;;;0.80;99.90;;;;;;5089334;28;20529;-77
2021/01/17 06:11:15;;;;;;;29.42;16.30;;;0.80;99.90;;;;;;5071178;28;20599;-74
2021/01/17 06:13:54;;;;;;;26.33;15.30;;;0.90;99.90;;;;;;5070788;28;20219;-75
2021/01/17 06:16:31;;;;;;;30.00;16.95;;;0.90;99.90;;;;;;5069638;28;20205;-75
2021/01/17 06:19:06;;;;;;;28.45;16.08;;;0.80;99.90;;;;;;5076957;28;20185;-74
2021/01/17 06:21:39;;;;;;;26.48;15.40;;;0.90;99.90;;;;;;5085398;28;20635;-75
2021/01/17 06:24:12;;;;;;;30.23;17.15;;;0.90;99.90;;;;;;5086950;28;20282;-74
2021/01/17 06:26:51;;;;;;;25.88;15.35;;;0.90;99.90;;;;;;5088921;28;20201;-75
2021/01/17 06:29:35;;;;;;;29.90;15.82;;;1.00;99.90;;;;;;5088829;28;20196;-74
2021/01/17 06:32:17;;;;;;;30.27;16.50;;;0.80;99.90;;;;;;5089379;28;20757;-75
2021/01/17 06:34:53;;;;;;;27.52;17.45;;;0.90;99.90;;;;;;5075109;28;20204;-75
2021/01/17 06:37:29;;;;;;;31.95;16.90;;;1.00;99.90;;;;;;5089926;28;20190;-75
2021/01/17 06:40:01;;;;;;;34.83;16.63;;;1.00;99.90;;;;;;5085820;28;20198;-75
2021/01/17 06:42:34;;;;;;;31.30;15.57;;;0.90;99.90;;;;;;5086104;28;20300;-75
2021/01/17 06:45:16;;;;;;;24.25;15.50;;;1.00;99.90;;;;;;5086673;28;20301;-75
2021/01/17 06:47:54;;;;;;;29.75;15.30;;;0.90;99.90;;;;;;5088456;28;20182;-75
2021/01/17 06:50:28;;;;;;;31.67;16.92;;;1.00;99.90;;;;;;5089058;28;20194;-75
2021/01/17 06:53:00;;;;;;;28.75;16.45;;;0.90;99.90;;;;;;5090055;28;20575;-75
2021/01/17 06:55:33;;;;;;;30.50;16.40;;;0.90;99.90;;;;;;5090789;28;20532;-75
2021/01/17 06:58:14;;;;;;;31.52;17.95;;;0.90;99.90;;;;;;5090440;28;20209;-75
2021/01/17 07:00:46;;;;;;;26.05;15.32;;;0.90;99.90;;;;;;5090639;28;20548;-75
2021/01/17 07:03:36;;;;;;;34.15;17.70;;;0.90;99.90;;;;;;5082836;28;20218;-75
2021/01/17 07:06:25;;;;;;;29.42;16.15;;;0.90;99.90;;;;;;5087176;28;20213;-75
2021/01/17 07:09:05;;;;;;;28.65;15.85;;;0.90;99.90;;;;;;5092261;28;20250;-76
2021/01/17 07:11:55;;;;;;;28.40;15.63;;;1.00;99.90;;;;;;5092309;28;20194;-76
2021/01/17 07:14:29;;;;;;;30.10;17.13;;;1.00;99.90;;;;;;5080103;28;20208;-76
2021/01/17 07:17:07;;;;;;;25.63;15.23;;;0.90;99.90;;;;;;5094265;28;20204;-74
2021/01/17 07:19:50;;;;;;;29.92;16.55;;;1.00;99.90;;;;;;5093178;28;20189;-76
2021/01/17 07:22:23;;;;;;;30.27;16.65;;;1.00;99.90;;;;;;5076941;28;20305;-74
2021/01/17 07:24:59;;;;;;;28.48;15.93;;;0.90;99.90;;;;;;5085688;28;20552;-75
2021/01/17 07:27:53;;;;;;;34.15;17.83;;;1.00;99.90;;;;;;5082068;28;20195;-76
2021/01/17 07:30:37;;;;;;;35.47;17.15;;;1.00;99.90;;;;;;5085309;28;20274;-74
2021/01/17 07:33:10;;;;;;;28.50;16.20;;;1.00;99.90;;;;;;5091263;28;20670;-76
2021/01/17 07:35:44;;;;;;;31.02;17.67;;;1.10;99.90;;;;;;5085224;28;20216;-78
2021/01/17 07:38:20;;;;;;;31.00;17.70;;;1.00;99.90;;;;;;5085160;28;20271;-77
2021/01/17 07:40:55;;;;;;;28.45;16.83;;;1.00;99.90;;;;;;5093336;28;20568;-75
2021/01/17 07:43:30;;;;;;;30.17;18.58;;;1.10;99.90;;;;;;5092225;28;20244;-76
2021/01/17 07:46:05;;;;;;;24.42;17.83;;;1.00;99.90;;;;;;5088586;28;20311;-78
2021/01/17 07:48:39;;;;;;;29.23;16.55;;;1.10;99.90;;;;;;5086802;28;20197;-75
2021/01/17 07:51:15;;;;;;;30.65;16.30;;;1.00;99.90;;;;;;5089393;28;20209;-78
2021/01/17 07:54:00;;;;;;;31.95;18.50;;;1.10;99.90;;;;;;5086178;28;20210;-76
2021/01/17 07:56:35;;;;;;;33.90;18.65;;;1.10;99.90;;;;;;5078554;28;20212;-77
2021/01/17 07:59:08;;;;;;;30.23;17.42;;;1.10;99.90;;;;;;5081472;28;20201;-78
2021/01/17 08:01:50;;;;;;;29.27;19.63;;;1.10;99.90;;;;;;5088135;28;20534;-76
2021/01/17 08:04:31;;;;;;;31.83;17.23;;;1.10;99.90;;;;;;5087448;28;20208;-77
2021/01/17 08:07:04;;;;;;;30.48;17.88;;;1.10;99.90;;;;;;5089969;28;20208;-76
2021/01/17 08:09:47;;;;;;;32.15;17.00;;;1.10;99.90;;;;;;5090574;28;20196;-76
2021/01/17 08:12:29;;;;;;;30.27;17.77;;;1.10;99.90;;;;;;5089502;28;20209;-78
2021/01/17 08:15:22;;;;;;;34.70;17.73;;;1.10;99.90;;;;;;5085312;28;20643;-77
2021/01/17 08:17:55;;;;;;;27.75;15.70;;;1.20;99.90;;;;;;5092757;28;20190;-79
2021/01/17 08:20:29;;;;;;;33.40;18.17;;;1.20;99.90;;;;;;5091545;28;20739;-78
2021/01/17 08:23:12;;;;;;;35.42;18.55;;;1.10;99.90;;;;;;5089252;28;20216;-85
2021/01/17 08:25:55;;;;;;;30.20;18.58;;;1.20;99.90;;;;;;5085163;28;20273;-78
2021/01/17 08:28:38;;;;;;;33.30;17.88;;;1.20;99.90;;;;;;5089071;28;20202;-79
2021/01/17 08:31:35;;;;;;;32.25;18.02;;;1.20;99.90;;;;;;5088463;28;20297;-76
2021/01/17 08:34:17;;;;;;;28.13;16.42;;;1.20;99.90;;;;;;5069843;28;20202;-77
2021/01/17 08:36:50;;;;;;;32.97;19.20;;;1.20;99.90;;;;;;5068563;28;20251;-79
2021/01/17 08:39:43;;;;;;;29.77;17.92;;;1.20;99.90;;;;;;5057166;28;20197;-75
2021/01/17 08:42:29;;;;;;;32.05;18.73;;;1.20;99.90;;;;;;5092511;28;20221;-77
2021/01/17 08:45:05;;;;;;;33.92;17.92;;;1.20;99.90;;;;;;5090008;28;20259;-77
2021/01/17 08:47:38;;;;;;;32.85;18.70;;;1.20;99.90;;;;;;5085520;28;20197;-76
2021/01/17 08:50:27;;;;;;;32.15;16.02;;;1.20;99.90;;;;;;5088169;28;20202;-78
2021/01/17 08:53:09;;;;;;;32.85;19.55;;;1.30;99.90;;;;;;5089395;28;20213;-75
2021/01/17 08:55:49;;;;;;;33.70;18.42;;;1.20;99.90;;;;;;5074264;28;20673;-78
2021/01/17 08:58:46;;;;;;;32.55;17.70;;;1.20;99.90;;;;;;5089595;28;20460;-80
2021/01/17 09:01:20;;;;;;;30.08;17.15;;;1.30;99.90;;;;;;5089182;28;20193;-77
2021/01/17 09:04:02;;;;;;;33.83;17.35;;;1.30;99.90;;;;;;5091019;28;20604;-76
2021/01/17 09:06:33;;;;;;;38.78;19.17;;;1.30;99.90;;;;;;5079843;28;20213;-77
2021/01/17 09:09:08;;;;;;;35.90;19.67;;;1.30;99.90;;;;;;5086026;28;20273;-76
2021/01/17 09:11:43;;;;;;;33.65;20.27;;;1.30;99.90;;;;;;5087086;28;20725;-75
2021/01/17 09:14:19;;;;;;;36.55;18.95;;;1.30;99.90;;;;;;5089369;28;20193;-76
2021/01/17 09:16:56;;;;;;;34.53;19.30;;;1.30;99.90;;;;;;5089790;28;20288;-76
2021/01/17 09:19:30;;;;;;;35.45;21.15;;;1.30;99.90;;;;;;5090012;28;20186;-76
2021/01/17 09:22:05;;;;;;;30.27;18.20;;;1.30;99.90;;;;;;5089654;28;20278;-76
2021/01/17 09:24:38;;;;;;;33.88;18.83;;;1.40;99.90;;;;;;5090585;28;20203;-76
2021/01/17 09:27:11;;;;;;;34.63;19.25;;;1.30;99.90;;;;;;5090835;28;20204;-76
2021/01/17 09:29:45;;;;;;;37.13;19.67;;;1.30;99.90;;;;;;5090668;28;20224;-76
2021/01/17 09:32:19;;;;;;;32.85;19.92;;;1.40;99.90;;;;;;5084646;28;20296;-75
2021/01/17 09:34:52;;;;;;;33.20;19.02;;;1.40;99.90;;;;;;5087266;28;20193;-76
2021/01/17 09:37:25;;;;;;;37.25;20.23;;;1.50;99.90;;;;;;5089160;28;20190;-75
2021/01/17 09:39:58;;;;;;;34.40;19.40;;;1.50;99.90;;;;;;5088487;28;20190;-76
2021/01/17 09:42:32;;;;;;;32.63;18.77;;;1.50;99.90;;;;;;5088944;28;20617;-76
2021/01/17 09:45:07;;;;;;;36.72;20.63;;;1.50;99.90;;;;;;5084767;28;20582;-76
2021/01/17 09:47:40;;;;;;;32.08;19.10;;;1.60;99.90;;;;;;5085354;28;20511;-76
2021/01/17 09:50:13;;;;;;;34.80;19.75;;;1.60;99.90;;;;;;5088878;28;20192;-76
2021/01/17 09:52:46;;;;;;;32.83;19.58;;;1.60;99.90;;;;;;5088878;28;20217;-76
2021/01/17 09:55:18;;;;;;;35.08;19.35;;;1.60;99.90;;;;;;5088246;28;20222;-76
2021/01/17 09:57:51;;;;;;;34.92;19.73;;;1.60;99.90;;;;;;5090220;28;20658;-75
2021/01/17 10:00:24;;;;;;;35.72;19.85;;;1.60;99.90;;;;;;5085279;28;20198;-76
2021/01/17 10:02:58;;;;;;;34.17;18.50;;;1.60;99.90;;;;;;5086982;28;20202;-75
2021/01/17 10:05:30;;;;;;;36.83;18.77;;;1.60;99.90;;;;;;5088907;28;20217;-77
2021/01/17 10:08:05;;;;;;;32.80;19.70;;;1.60;99.90;;;;;;5088872;28;20240;-78
2021/01/17 10:10:39;;;;;;;40.80;20.58;;;1.60;99.90;;;;;;5088005;28;20199;-77
2021/01/17 10:13:11;;;;;;;34.45;18.48;;;1.60;99.90;;;;;;5089291;28;20229;-77
2021/01/17 10:15:44;;;;;;;36.53;19.48;;;1.60;99.90;;;;;;5091004;28;20681;-77
2021/01/17 10:18:13;;;;;;;35.30;19.50;;;1.70;99.90;;;;;;5090606;28;20197;-77
2021/01/17 10:20:52;;;;;;;37.80;18.90;;;1.70;99.90;;;;;;5089993;28;20211;-77
2021/01/17 10:23:31;;;;;;;34.72;21.23;;;1.70;99.90;;;;;;5084066;28;20225;-78
2021/01/17 10:26:04;;;;;;;30.00;18.95;;;1.70;99.90;;;;;;5087612;28;20220;-76
2021/01/17 10:28:37;;;;;;;33.63;19.75;;;1.80;99.90;;;;;;5089072;28;20196;-77
2021/01/17 10:31:10;;;;;;;35.80;20.30;;;1.80;99.90;;;;;;5088725;28;20246;-78
2021/01/17 10:33:44;;;;;;;40.67;20.88;;;1.80;99.90;;;;;;5089257;28;20752;-78
2021/01/17 10:36:17;;;;;;;33.60;19.92;;;1.80;99.90;;;;;;5091121;28;20199;-77
2021/01/17 10:38:50;;;;;;;37.47;19.77;;;1.80;99.90;;;;;;5090694;28;20548;-78
2021/01/17 10:41:26;;;;;;;31.77;19.80;;;1.80;99.90;;;;;;5092275;28;20204;-76
2021/01/17 10:44:11;;;;;;;33.55;19.63;;;1.80;99.90;;;;;;5091266;28;20193;-77
2021/01/17 10:46:51;;;;;;;35.85;19.45;;;1.80;99.90;;;;;;5086870;28;20278;-75
2021/01/17 10:49:26;;;;;;;36.45;20.67;;;1.90;99.90;;;;;;5092046;28;20207;-77
2021/01/17 10:52:04;;;;;;;36.67;20.08;;;1.80;99.90;;;;;;5092044;28;20299;-78
2021/01/17 10:54:41;;;;;;;36.15;21.35;;;1.80;99.90;;;;;;5092169;28;20224;-78
2021/01/17 10:57:14;;;;;;;38.03;20.00;;;1.80;99.90;;;;;;5092832;28;20531;-78
2021/01/17 10:59:46;;;;;;;38.60;19.98;;;1.80;99.90;;;;;;5094501;28;20514;-77
2021/01/17 11:02:23;;;;;;;40.28;20.98;;;1.80;99.90;;;;;;5094345;28;20220;-78
2021/01/17 11:04:56;;;;;;;39.47;20.98;;;1.90;99.90;;;;;;5090814;28;20181;-76
2021/01/17 11:07:29;;;;;;;31.25;18.95;;;1.90;99.90;;;;;;5088710;28;20258;-78
2021/01/17 11:10:13;;;;;;;35.92;20.13;;;1.90;99.90;;;;;;5091307;28;20403;-77
2021/01/17 11:12:45;;;;;;;31.30;18.67;;;1.90;99.90;;;;;;5090922;28;20225;-77
2021/01/17 11:15:14;;;;;;;34.95;19.17;;;1.90;99.90;;;;;;5091085;28;20201;-78
2021/01/17 11:17:53;;;;;;;43.70;21.98;;;1.90;99.90;;;;;;5091657;28;20288;-77
2021/01/17 11:20:26;;;;;;;35.72;19.35;;;1.90;99.90;;;;;;5090776;28;20215;-78
2021/01/17 11:23:01;;;;;;;39.60;20.40;;;1.90;99.90;;;;;;5090447;28;20202;-78
2021/01/17 11:25:34;;;;;;;37.92;21.50;;;2.00;99.90;;;;;;5091206;28;20216;-78
2021/01/17 11:28:01;;;;;;;33.92;20.38;;;1.90;99.90;;;;;;5089124;28;20185;-79
2021/01/17 11:30:30;;;;;;;36.15;20.92;;;2.00;99.90;;;;;;5087791;28;20267;-78
2021/01/17 11:33:08;;;;;;;35.72;19.33;;;2.00;99.90;;;;;;5089207;28;20237;-79
2021/01/17 11:35:35;;;;;;;42.40;20.30;;;2.00;99.90;;;;;;5090173;28;20185;-78
2021/01/17 11:38:02;;;;;;;34.58;20.63;;;2.00;99.90;;;;;;5084270;28;20196;-79
2021/01/17 11:40:31;;;;;;;36.35;21.10;;;2.00;99.90;;;;;;5087994;28;20198;-79
2021/01/17 11:43:15;;;;;;;32.22;18.52;;;2.00;99.90;;;;;;5089850;28;20261;-78
2021/01/17 11:45:46;;;;;;;32.95;19.75;;;2.10;99.90;;;;;;5089602;28;20225;-78
2021/01/17 11:48:13;;;;;;;41.28;20.48;;;2.10;99.90;;;;;;5089020;28;20205;-79
2021/01/17 11:50:42;;;;;;;39.45;20.90;;;2.10;99.90;;;;;;5084877;28;21497;-79
2021/01/17 11:53:14;;;;;;;36.55;19.70;;;2.10;99.90;;;;;;5080126;28;20312;-78
2021/01/17 11:55:48;;;;;;;43.28;21.38;;;2.10;99.90;;;;;;5088155;28;20178;-78
2021/01/17 11:58:16;;;;;;;38.67;19.90;;;2.10;99.90;;;;;;5086637;28;20612;-77
2021/01/17 12:00:52;;;;;;;37.58;19.10;;;2.20;99.90;;;;;;5086530;28;20292;-78
2021/01/17 12:03:25;;;;;;;38.85;21.38;;;2.20;99.90;;;;;;5067387;28;20214;-78
2021/01/17 12:06:12;;;;;;;41.05;20.58;;;2.20;99.90;;;;;;5073106;28;20702;-78
2021/01/17 12:08:55;;;;;;;38.42;21.20;;;2.20;99.90;;;;;;5089607;28;20548;-78
2021/01/17 12:11:31;;;;;;;39.13;21.73;;;2.20;99.90;;;;;;5088265;28;20194;-78
2021/01/17 12:13:59;;;;;;;39.30;21.33;;;2.30;99.90;;;;;;5082961;28;20904;-78
2021/01/17 12:16:28;;;;;;;38.45;20.85;;;2.30;99.90;;;;;;5085707;28;20236;-79
2021/01/17 12:18:54;;;;;;;39.72;22.60;;;2.30;99.90;;;;;;5088361;28;20639;-78
2021/01/17 12:21:25;;;;;;;39.38;20.52;;;2.30;99.90;;;;;;5087690;28;20221;-78
2021/01/17 12:23:52;;;;;;;38.53;21.48;;;2.30;99.90;;;;;;5086049;28;20667;-78
2021/01/17 12:26:21;;;;;;;37.22;21.02;;;2.30;99.90;;;;;;5088956;28;20666;-78
2021/01/17 12:28:48;;;;;;;43.45;20.70;;;2.30;99.90;;;;;;5087525;28;20398;-78
2021/01/17 12:31:23;;;;;;;40.40;22.45;;;2.30;99.90;;;;;;5088688;28;20254;-78
2021/01/17 12:34:03;;;;;;;42.03;22.10;;;2.30;99.90;;;;;;5088079;28;20524;-79
2021/01/17 12:36:34;;;;;;;37.65;20.75;;;2.30;99.90;;;;;;5081779;28;20194;-78
2021/01/17 12:39:02;;;;;;;39.60;20.92;;;2.30;99.90;;;;;;5069749;28;20195;-78
2021/01/17 12:41:30;;;;;;;41.90;21.10;;;2.40;99.90;;;;;;5074426;28;20202;-79
2021/01/17 12:44:04;;;;;;;38.55;21.00;;;2.30;99.90;;;;;;5087923;28;20208;-76
2021/01/17 12:46:36;;;;;;;43.40;22.73;;;2.30;99.90;;;;;;5084947;28;20606;-78
2021/01/17 12:49:09;;;;;;;37.60;21.50;;;2.30;99.90;;;;;;5089950;28;20197;-79
2021/01/17 12:51:43;;;;;;;41.75;21.35;;;2.30;99.90;;;;;;5089959;28;20209;-80
2021/01/17 12:54:15;;;;;;;43.25;22.42;;;2.30;99.90;;;;;;5072061;28;20557;-80
2021/01/17 12:56:48;;;;;;;41.28;22.50;;;2.30;99.90;;;;;;5088789;28;20266;-81
2021/01/17 12:59:20;;;;;;;38.67;21.02;;;2.30;99.90;;;;;;5084769;28;20242;-84
2021/01/17 13:01:53;;;;;;;35.38;20.75;;;2.30;99.90;;;;;;5087337;28;20223;-80
2021/01/17 13:04:25;;;;;;;39.88;21.02;;;2.30;99.90;;;;;;5089130;28;20635;-79
2021/01/17 13:07:04;;;;;;;41.83;22.52;;;2.30;99.90;;;;;;5090053;28;20232;-83
2021/01/17 13:09:37;;;;;;;36.03;20.08;;;2.30;99.90;;;;;;5088903;28;20650;-82
2021/01/17 13:12:10;;;;;;;38.63;20.73;;;2.30;99.90;;;;;;5082449;28;20214;-82
2021/01/17 13:14:42;;;;;;;42.17;20.08;;;2.30;99.90;;;;;;5086866;28;20542;-82
2021/01/17 13:17:10;;;;;;;40.83;21.40;;;2.30;99.90;;;;;;5089022;28;20189;-80